CheckWX is a tool to help pilots better visualize weather data.  It is not intended as a substitute for an official pre-flight weather briefing.

06:58:18 UTC

UKWW TAF
Vinnytsia / Gavyryshivka Airport
Vinnitsa, Ukraine
TAF UKWW 190510Z 1906/1915 VRB01MPS 9999 SCT030 TX29/1912Z TN22/1906Z

Jun-19@
06:00 UTC

Jun-19 @ 06:00 UTC

Jun-19@
15:00 UTC

Jun-19 @ 15:00 UTC

TAF UKWW 190510Z 1906/1915 VRB01MPS 9999 SCT030 TX29/1912Z TN22/1906Z
Wind
  • Variable at 2 KTS
Cloud Levels
  • Scattered at 3,000' AGL